KINT/INT METAR and TAF weather

Enter ICAO airport designator
Station Type Date Time Source
KINT METAR 2022/01/26 13:54 UTC NOAA

KINT 261354Z 03011G19KT 10SM CLR 01/M08 A3030 RMK AO2 SLP265 T00061083


Station Type Date Time Source
KINT Decoded METAR 2022/01/26 13:54 UTC NOAA

WINSTON SALEM SMITH REYNOLDS, NC, United States (KINT) 36-08N 80-14W 291M
Jan 26, 2022 - 08:54 AM EST / 2022.01.26 1354 UTC
Wind: from the NNE (030 degrees) at 13 MPH (11 KT) gusting to 22 MPH (19 KT):0
Visibility: 10 mile(s):0
Sky conditions: clear
Temperature: 33.1 F (0.6 C)
Windchill: 23 F (-5 C):1
Dew Point: 17.1 F (-8.3 C)
Relative Humidity: 51%
Pressure (altimeter): 30.3 in. Hg (1026 hPa)
ob: KINT 261354Z 03011G19KT 10SM CLR 01/M08 A3030 RMK AO2 SLP265 T00061083
cycle: 14

Station Type Date Time Source
KINT TAF 2022/01/26 12:22 UTC NOAA

TAF KINT 261120Z 2612/2712 04008KT P6SM BKN050
FM261800 02006KT P6SM SCT250

Example: see airport list